PWSweather.com
Personal Weather Stations
Station Observations
AF1HS
North Haven, CT 06473

North Haven, CT 06473

Lat: 41.3733, Lon: -72.8413

Elevation: 85.3

Station Type: Oregon Scientific WMR968

http://www.af1hs.com/wx/index.php

Latest ConditionsUpdated 11:20:01 PM EDT Tuesday, Mar 26, 2019
Currently Today's Max Today's Min Today's Average
Temperature 30.6°F-0.8°C 47.3°F8.5°C 26.2°F-3.2°C 36.0°F2.2°C
Dew Point 7.9°F-13.4°C 22.3°F-5.4°C 4.0°F-15.6°C 11.8°F-11.2°C
Winds 1.2 mph NW1.9 kmh NW 12.7 mph -20.4 kmh - - 5.8 mph 9.3 kmh
Wind Gusts 4.6 mph7.4 kmh 19.6 mph31.5 kmh - -
Humidity 38% 38% 34% 36%
Pressure 30.35 in1027.8 mb 30.35 in1027.8 mb 30.11 in1019.6 mb -
Hour Temp Dew Point Humidity Winds Wind Gusts Pressure Precip Precip Rate Daily Precip Total
11:20 PM 30.6°F-0.8°C 7.9°F-13.4°C 38% 1.2 mph NW1.9 kmh NW 4.6 mph7.4 kmh 30.35 in1027.8 mb - 0.00 in0.0 mm 0.00 in0.0 mm
11:10 PM 30.6°F-0.8°C 8.0°F-13.3°C 38% Calm Calm 5.8 mph9.3 kmh 30.34 in1027.4 mb - 0.00 in0.0 mm 0.00 in0.0 mm
11:00 PM 31.1°F-0.5°C 8.4°F-13.1°C 38% 2.3 mph NW3.7 kmh NW 3.5 mph5.6 kmh 30.34 in1027.4 mb - 0.00 in0.0 mm 0.00 in0.0 mm
10:50 PM 30.7°F-0.7°C 8.1°F-13.3°C 38% 2.3 mph NW3.7 kmh NW 3.5 mph5.6 kmh 30.34 in1027.4 mb - 0.00 in0.0 mm 0.00 in0.0 mm
10:40 PM 30.7°F-0.7°C 8.1°F-13.3°C 38% 1.2 mph NW1.9 kmh NW 3.5 mph5.6 kmh 30.34 in1027.4 mb - 0.00 in0.0 mm 0.00 in0.0 mm
10:30 PM 30.9°F-0.6°C 8.2°F-13.2°C 38% 2.3 mph NW3.7 kmh NW 3.5 mph5.6 kmh 30.34 in1027.4 mb - 0.00 in0.0 mm 0.00 in0.0 mm
10:20 PM 31.1°F-0.5°C 8.4°F-13.1°C 38% Calm Calm 3.5 mph5.6 kmh 30.34 in1027.4 mb - 0.00 in0.0 mm 0.00 in0.0 mm
10:10 PM 31.2°F-0.4°C 8.5°F-13.1°C 38% 2.3 mph NW3.7 kmh NW 2.3 mph3.7 kmh 30.34 in1027.4 mb - 0.00 in0.0 mm 0.00 in0.0 mm
10:00 PM 31.5°F-0.3°C 8.7°F-12.9°C 38% Calm Calm -- 30.34 in1027.4 mb - 0.00 in0.0 mm 0.00 in0.0 mm
09:50 PM 31.8°F-0.1°C 9.0°F-12.8°C 38% Calm Calm 2.3 mph3.7 kmh 30.34 in1027.4 mb - 0.00 in0.0 mm 0.00 in0.0 mm
09:40 PM 32.2°F0.1°C 9.4°F-12.6°C 38% Calm Calm -- 30.34 in1027.4 mb - 0.00 in0.0 mm 0.00 in0.0 mm
09:20 PM 32.9°F0.5°C 9.4°F-12.6°C 37% 3.5 mph NW5.6 kmh NW 3.5 mph5.6 kmh 30.31 in1026.4 mb - 0.00 in0.0 mm 0.00 in0.0 mm
09:10 PM 33.3°F0.7°C 9.8°F-12.3°C 37% Calm Calm -- 30.31 in1026.4 mb - 0.00 in0.0 mm 0.00 in0.0 mm
09:00 PM 33.8°F1.0°C 10.2°F-12.1°C 37% Calm Calm -- 30.31 in1026.4 mb - 0.00 in0.0 mm 0.00 in0.0 mm
08:50 PM 34.2°F1.2°C 10.6°F-11.9°C 37% 2.3 mph NW3.7 kmh NW 3.5 mph5.6 kmh 30.31 in1026.4 mb - 0.00 in0.0 mm 0.00 in0.0 mm
08:40 PM 34.4°F1.3°C 10.8°F-11.8°C 37% 1.2 mph NW1.9 kmh NW 3.5 mph5.6 kmh 30.31 in1026.4 mb - 0.00 in0.0 mm 0.00 in0.0 mm
08:30 PM 34.7°F1.5°C 11.0°F-11.7°C 37% 3.5 mph NW5.6 kmh NW 3.5 mph5.6 kmh 30.31 in1026.4 mb - 0.00 in0.0 mm 0.00 in0.0 mm
08:20 PM 35.1°F1.7°C 11.4°F-11.4°C 37% 3.5 mph NW5.6 kmh NW 3.5 mph5.6 kmh 30.31 in1026.4 mb - 0.00 in0.0 mm 0.00 in0.0 mm
08:10 PM 35.8°F2.1°C 12.0°F-11.1°C 37% 3.5 mph NW5.6 kmh NW 4.6 mph7.4 kmh 30.31 in1026.4 mb - 0.00 in0.0 mm 0.00 in0.0 mm
08:00 PM 36.1°F2.3°C 11.6°F-11.3°C 36% 3.5 mph NW5.6 kmh NW 3.5 mph5.6 kmh 30.28 in1025.4 mb - 0.00 in0.0 mm 0.00 in0.0 mm
07:50 PM 36.1°F2.3°C 11.7°F-11.3°C 36% 3.5 mph NW5.6 kmh NW 5.8 mph9.3 kmh 30.28 in1025.4 mb - 0.00 in0.0 mm 0.00 in0.0 mm
07:40 PM 36.7°F2.6°C 12.2°F-11.0°C 36% 1.2 mph NW1.9 kmh NW 3.5 mph5.6 kmh 30.28 in1025.4 mb - 0.00 in0.0 mm 0.00 in0.0 mm
07:30 PM 37.4°F3.0°C 12.9°F-10.6°C 36% 4.6 mph NW7.4 kmh NW 5.8 mph9.3 kmh 30.28 in1025.4 mb - 0.00 in0.0 mm 0.00 in0.0 mm
07:20 PM 37.9°F3.3°C 13.3°F-10.4°C 36% 5.8 mph NW9.3 kmh NW 8.1 mph13.0 kmh 30.26 in1024.7 mb - 0.00 in0.0 mm 0.00 in0.0 mm
07:10 PM 38.3°F3.5°C 13.6°F-10.2°C 36% 4.6 mph NW7.4 kmh NW 8.1 mph13.0 kmh 30.25 in1024.4 mb - 0.00 in0.0 mm 0.00 in0.0 mm
07:00 PM 38.7°F3.7°C 14.0°F-10.0°C 36% 6.9 mph NW11.1 kmh NW 5.8 mph9.3 kmh 30.25 in1024.4 mb - 0.00 in0.0 mm 0.00 in0.0 mm
06:50 PM 39.2°F4.0°C 14.4°F-9.8°C 36% 8.1 mph NW13.0 kmh NW 12.7 mph20.4 kmh 30.25 in1024.4 mb - 0.00 in0.0 mm 0.00 in0.0 mm
06:40 PM 39.6°F4.2°C 14.8°F-9.6°C 36% 6.9 mph NW11.1 kmh NW 6.9 mph11.1 kmh 30.25 in1024.4 mb - 0.00 in0.0 mm 0.00 in0.0 mm
06:30 PM 40.1°F4.5°C 15.2°F-9.3°C 36% 5.8 mph NNW9.3 kmh NNW 9.2 mph14.8 kmh 30.25 in1024.4 mb - 0.00 in0.0 mm 0.00 in0.0 mm
06:20 PM 40.5°F4.7°C 15.6°F-9.1°C 36% 8.1 mph NNW13.0 kmh NNW 9.2 mph14.8 kmh 30.25 in1024.4 mb - 0.00 in0.0 mm 0.00 in0.0 mm
06:10 PM 40.8°F4.9°C 15.9°F-8.9°C 36% 5.8 mph NNW9.3 kmh NNW 8.1 mph13.0 kmh 30.25 in1024.4 mb - 0.00 in0.0 mm 0.00 in0.0 mm
06:00 PM 41.4°F5.2°C 15.7°F-9.1°C 35% 5.8 mph NW9.3 kmh NW 12.7 mph20.4 kmh 30.25 in1024.4 mb - 0.00 in0.0 mm 0.00 in0.0 mm
05:50 PM 42.1°F5.6°C 16.4°F-8.7°C 35% 6.9 mph NW11.1 kmh NW 9.2 mph14.8 kmh 30.23 in1023.7 mb - 0.00 in0.0 mm 0.00 in0.0 mm
05:40 PM 42.7°F5.9°C 16.9°F-8.4°C 35% 9.2 mph NW14.8 kmh NW 12.7 mph20.4 kmh 30.22 in1023.4 mb - 0.00 in0.0 mm 0.00 in0.0 mm
05:30 PM 42.9°F6.1°C 17.1°F-8.3°C 35% 4.6 mph WNW7.4 kmh WNW 9.2 mph14.8 kmh 30.22 in1023.4 mb - 0.00 in0.0 mm 0.00 in0.0 mm
05:20 PM 43.1°F6.2°C 17.2°F-8.2°C 35% 8.1 mph NW13.0 kmh NW 10.4 mph16.7 kmh 30.22 in1023.4 mb - 0.00 in0.0 mm 0.00 in0.0 mm
05:10 PM 43.7°F6.5°C 17.8°F-7.9°C 35% 5.8 mph NW9.3 kmh NW 8.1 mph13.0 kmh 30.22 in1023.4 mb - 0.00 in0.0 mm 0.00 in0.0 mm
05:00 PM 44.4°F6.9°C 18.4°F-7.6°C 35% 5.8 mph WNW9.3 kmh WNW 9.2 mph14.8 kmh 30.22 in1023.4 mb - 0.00 in0.0 mm 0.00 in0.0 mm
04:50 PM 44.6°F7.0°C 18.6°F-7.4°C 35% 4.6 mph WNW7.4 kmh WNW 10.4 mph16.7 kmh 30.22 in1023.4 mb - 0.00 in0.0 mm 0.00 in0.0 mm
04:40 PM 44.7°F7.1°C 18.7°F-7.4°C 35% 6.9 mph WNW11.1 kmh WNW 8.1 mph13.0 kmh 30.22 in1023.4 mb - 0.00 in0.0 mm 0.00 in0.0 mm
04:30 PM 44.4°F6.9°C 18.4°F-7.6°C 35% 4.6 mph W7.4 kmh W 5.8 mph9.3 kmh 30.22 in1023.4 mb - 0.00 in0.0 mm 0.00 in0.0 mm
04:20 PM 44.6°F7.0°C 18.6°F-7.4°C 35% 6.9 mph N11.1 kmh N 5.8 mph9.3 kmh 30.22 in1023.4 mb - 0.00 in0.0 mm 0.00 in0.0 mm
04:10 PM 44.8°F7.1°C 18.8°F-7.3°C 35% 6.9 mph NW11.1 kmh NW 9.2 mph14.8 kmh 30.22 in1023.4 mb - 0.00 in0.0 mm 0.00 in0.0 mm
04:00 PM 44.6°F7.0°C 18.6°F-7.4°C 35% 9.2 mph NNW14.8 kmh NNW 10.4 mph16.7 kmh 30.22 in1023.4 mb - 0.00 in0.0 mm 0.00 in0.0 mm
03:50 PM 45.0°F7.2°C 18.2°F-7.7°C 34% 5.8 mph WNW9.3 kmh WNW 11.5 mph18.5 kmh 30.22 in1023.4 mb - 0.00 in0.0 mm 0.00 in0.0 mm
03:40 PM 45.0°F7.2°C 18.2°F-7.7°C 34% 5.8 mph NW9.3 kmh NW 9.2 mph14.8 kmh 30.22 in1023.4 mb - 0.00 in0.0 mm 0.00 in0.0 mm
03:30 PM 45.9°F7.7°C 19.1°F-7.2°C 34% 6.9 mph NNW11.1 kmh NNW 11.5 mph18.5 kmh 30.22 in1023.4 mb - 0.00 in0.0 mm 0.00 in0.0 mm
03:20 PM 45.8°F7.7°C 19.0°F-7.2°C 34% 5.8 mph W9.3 kmh W 8.1 mph13.0 kmh 30.22 in1023.4 mb - 0.00 in0.0 mm 0.00 in0.0 mm
03:10 PM 44.6°F7.0°C 18.6°F-7.4°C 35% 6.9 mph N11.1 kmh N 10.4 mph16.7 kmh 30.22 in1023.4 mb - 0.00 in0.0 mm 0.00 in0.0 mm
03:00 PM 45.2°F7.3°C 18.5°F-7.5°C 34% 6.9 mph NW11.1 kmh NW 8.1 mph13.0 kmh 30.22 in1023.4 mb - 0.00 in0.0 mm 0.00 in0.0 mm
02:50 PM 45.4°F7.4°C 18.6°F-7.4°C 34% 9.2 mph NW14.8 kmh NW 12.7 mph20.4 kmh 30.22 in1023.4 mb - 0.00 in0.0 mm 0.00 in0.0 mm
02:40 PM 45.1°F7.3°C 18.4°F-7.6°C 34% 6.9 mph NW11.1 kmh NW 9.2 mph14.8 kmh 30.22 in1023.4 mb - 0.00 in0.0 mm 0.00 in0.0 mm
02:30 PM 47.3°F8.5°C 22.3°F-5.4°C 37% 4.6 mph WNW7.4 kmh WNW 8.1 mph13.0 kmh 30.22 in1023.4 mb - 0.00 in0.0 mm 0.00 in0.0 mm
02:20 PM 45.4°F7.4°C 18.7°F-7.4°C 34% 8.1 mph NW13.0 kmh NW 9.2 mph14.8 kmh 30.25 in1024.4 mb - 0.00 in0.0 mm 0.00 in0.0 mm
02:10 PM 46.1°F7.8°C 19.2°F-7.1°C 34% 8.1 mph N13.0 kmh N 11.5 mph18.5 kmh 30.25 in1024.4 mb - 0.00 in0.0 mm 0.00 in0.0 mm
02:00 PM 45.3°F7.4°C 18.5°F-7.5°C 34% 5.8 mph N9.3 kmh N 10.4 mph16.7 kmh 30.25 in1024.4 mb - 0.00 in0.0 mm 0.00 in0.0 mm
01:50 PM 46.5°F8.1°C 20.3°F-6.5°C 35% 6.9 mph N11.1 kmh N 9.2 mph14.8 kmh 30.25 in1024.4 mb - 0.00 in0.0 mm 0.00 in0.0 mm
01:40 PM 45.1°F7.3°C 18.3°F-7.6°C 34% 8.1 mph NNE13.0 kmh NNE 5.8 mph9.3 kmh 30.25 in1024.4 mb - 0.00 in0.0 mm 0.00 in0.0 mm
01:30 PM 46.2°F7.9°C 19.4°F-7.0°C 34% 3.5 mph ENE5.6 kmh ENE 5.8 mph9.3 kmh 30.25 in1024.4 mb - 0.00 in0.0 mm 0.00 in0.0 mm
01:20 PM 46.6°F8.1°C 19.7°F-6.8°C 34% 6.9 mph NW11.1 kmh NW 12.7 mph20.4 kmh 30.25 in1024.4 mb - 0.00 in0.0 mm 0.00 in0.0 mm
01:10 PM 45.6°F7.6°C 18.8°F-7.3°C 34% 4.6 mph NNW7.4 kmh NNW 9.2 mph14.8 kmh 30.25 in1024.4 mb - 0.00 in0.0 mm 0.00 in0.0 mm
01:00 PM 46.0°F7.8°C 19.1°F-7.2°C 34% 4.6 mph NNW7.4 kmh NNW 9.2 mph14.8 kmh 30.25 in1024.4 mb - 0.00 in0.0 mm 0.00 in0.0 mm
12:50 PM 46.1°F7.8°C 19.2°F-7.1°C 34% 5.8 mph NW9.3 kmh NW 10.4 mph16.7 kmh 30.25 in1024.4 mb - 0.00 in0.0 mm 0.00 in0.0 mm
12:40 PM 45.1°F7.3°C 18.3°F-7.6°C 34% 6.9 mph NW11.1 kmh NW 9.2 mph14.8 kmh 30.25 in1024.4 mb - 0.00 in0.0 mm 0.00 in0.0 mm
12:30 PM 46.4°F8.0°C 19.5°F-6.9°C 34% 6.9 mph NW11.1 kmh NW 8.1 mph13.0 kmh 30.25 in1024.4 mb - 0.00 in0.0 mm 0.00 in0.0 mm
12:20 PM 45.3°F7.4°C 18.6°F-7.4°C 34% 8.1 mph N13.0 kmh N 9.2 mph14.8 kmh 30.27 in1025.1 mb - 0.00 in0.0 mm 0.00 in0.0 mm
12:10 PM 43.3°F6.3°C 17.5°F-8.1°C 35% 6.9 mph NNW11.1 kmh NNW 8.1 mph13.0 kmh 30.28 in1025.4 mb - 0.00 in0.0 mm 0.00 in0.0 mm
12:00 PM 44.5°F6.9°C 18.5°F-7.5°C 35% 8.1 mph NNW13.0 kmh NNW 8.1 mph13.0 kmh 30.28 in1025.4 mb - 0.00 in0.0 mm 0.00 in0.0 mm
11:50 AM 43.4°F6.3°C 17.5°F-8.1°C 35% 4.6 mph NNW7.4 kmh NNW 9.2 mph14.8 kmh 30.28 in1025.4 mb - 0.00 in0.0 mm 0.00 in0.0 mm
11:40 AM 43.9°F6.6°C 18.0°F-7.8°C 35% 4.6 mph N7.4 kmh N 8.1 mph13.0 kmh 30.28 in1025.4 mb - 0.00 in0.0 mm 0.00 in0.0 mm
11:30 AM 42.3°F5.7°C 16.5°F-8.6°C 35% 6.9 mph NW11.1 kmh NW 10.4 mph16.7 kmh 30.28 in1025.4 mb - 0.00 in0.0 mm 0.00 in0.0 mm
11:20 AM 43.1°F6.2°C 17.2°F-8.2°C 35% 10.4 mph NNW16.7 kmh NNW 12.7 mph20.4 kmh 30.28 in1025.4 mb - 0.00 in0.0 mm 0.00 in0.0 mm
11:10 AM 42.3°F5.7°C 16.5°F-8.6°C 35% 6.9 mph NW11.1 kmh NW 10.4 mph16.7 kmh 30.28 in1025.4 mb - 0.00 in0.0 mm 0.00 in0.0 mm
11:00 AM 41.9°F5.5°C 16.2°F-8.8°C 35% 8.1 mph N13.0 kmh N 15.0 mph24.1 kmh 30.28 in1025.4 mb - 0.00 in0.0 mm 0.00 in0.0 mm
10:50 AM 40.3°F4.6°C 15.4°F-9.2°C 36% 6.9 mph N11.1 kmh N 11.5 mph18.5 kmh 30.26 in1024.7 mb - 0.00 in0.0 mm 0.00 in0.0 mm
10:40 AM 41.4°F5.2°C 15.7°F-9.1°C 35% 11.5 mph N18.5 kmh N 19.6 mph31.5 kmh 30.25 in1024.4 mb - 0.00 in0.0 mm 0.00 in0.0 mm
10:30 AM 40.2°F4.6°C 15.4°F-9.2°C 36% 9.2 mph NNW14.8 kmh NNW 12.7 mph20.4 kmh 30.25 in1024.4 mb - 0.00 in0.0 mm 0.00 in0.0 mm
10:20 AM 40.0°F4.4°C 15.2°F-9.3°C 36% 10.4 mph N16.7 kmh N 12.7 mph20.4 kmh 30.25 in1024.4 mb - 0.00 in0.0 mm 0.00 in0.0 mm
10:10 AM 39.2°F4.0°C 14.4°F-9.8°C 36% 8.1 mph N13.0 kmh N 12.7 mph20.4 kmh 30.25 in1024.4 mb - 0.00 in0.0 mm 0.00 in0.0 mm
10:00 AM 39.3°F4.1°C 14.5°F-9.7°C 36% 10.4 mph NNW16.7 kmh NNW 15.0 mph24.1 kmh 30.25 in1024.4 mb - 0.00 in0.0 mm 0.00 in0.0 mm
09:50 AM 38.5°F3.6°C 13.8°F-10.1°C 36% 9.2 mph N14.8 kmh N 9.2 mph14.8 kmh 30.25 in1024.4 mb - 0.00 in0.0 mm 0.00 in0.0 mm
09:40 AM 37.4°F3.0°C 12.8°F-10.7°C 36% 6.9 mph NNE11.1 kmh NNE 9.2 mph14.8 kmh 30.25 in1024.4 mb - 0.00 in0.0 mm 0.00 in0.0 mm
09:30 AM 37.3°F2.9°C 12.8°F-10.7°C 36% 6.9 mph N11.1 kmh N 8.1 mph13.0 kmh 30.25 in1024.4 mb - 0.00 in0.0 mm 0.00 in0.0 mm
09:20 AM 35.9°F2.2°C 11.5°F-11.4°C 36% 6.9 mph N11.1 kmh N 10.4 mph16.7 kmh 30.23 in1023.7 mb - 0.00 in0.0 mm 0.00 in0.0 mm
09:10 AM 36.0°F2.2°C 11.6°F-11.3°C 36% 12.7 mph NNW20.4 kmh NNW 15.0 mph24.1 kmh 30.22 in1023.4 mb - 0.00 in0.0 mm 0.00 in0.0 mm
09:00 AM 34.6°F1.4°C 11.0°F-11.7°C 37% 9.2 mph N14.8 kmh N 9.2 mph14.8 kmh 30.22 in1023.4 mb - 0.00 in0.0 mm 0.00 in0.0 mm
08:50 AM 34.3°F1.3°C 10.6°F-11.9°C 37% 9.2 mph NNW14.8 kmh NNW 16.1 mph25.9 kmh 30.22 in1023.4 mb - 0.00 in0.0 mm 0.00 in0.0 mm
08:40 AM 33.2°F0.7°C 9.7°F-12.4°C 37% 9.2 mph N14.8 kmh N 11.5 mph18.5 kmh 30.22 in1023.4 mb - 0.00 in0.0 mm 0.00 in0.0 mm
08:30 AM 32.6°F0.3°C 9.2°F-12.7°C 37% 6.9 mph N11.1 kmh N 10.4 mph16.7 kmh 30.22 in1023.4 mb - 0.00 in0.0 mm 0.00 in0.0 mm
08:20 AM 31.7°F-0.2°C 9.0°F-12.8°C 38% 5.8 mph NNW9.3 kmh NNW 10.4 mph16.7 kmh 30.22 in1023.4 mb - 0.00 in0.0 mm 0.00 in0.0 mm
08:10 AM 31.3°F-0.4°C 8.6°F-13.0°C 38% 4.6 mph NNW7.4 kmh NNW 8.1 mph13.0 kmh 30.22 in1023.4 mb - 0.00 in0.0 mm 0.00 in0.0 mm
08:00 AM 30.2°F-1.0°C 7.6°F-13.6°C 38% 4.6 mph NNW7.4 kmh NNW 10.4 mph16.7 kmh 30.22 in1023.4 mb - 0.00 in0.0 mm 0.00 in0.0 mm
07:50 AM 28.7°F-1.8°C 6.2°F-14.3°C 38% 4.6 mph N7.4 kmh N 5.8 mph9.3 kmh 30.22 in1023.4 mb - 0.00 in0.0 mm 0.00 in0.0 mm
07:40 AM 27.7°F-2.4°C 5.3°F-14.8°C 38% 6.9 mph NNW11.1 kmh NNW 5.8 mph9.3 kmh 30.22 in1023.4 mb - 0.00 in0.0 mm 0.00 in0.0 mm
07:30 AM 26.9°F-2.8°C 4.6°F-15.2°C 38% 5.8 mph NW9.3 kmh NW 8.1 mph13.0 kmh 30.22 in1023.4 mb - 0.00 in0.0 mm 0.00 in0.0 mm
07:20 AM 26.4°F-3.1°C 4.2°F-15.4°C 38% 5.8 mph N9.3 kmh N 5.8 mph9.3 kmh 30.19 in1022.4 mb - 0.00 in0.0 mm 0.00 in0.0 mm
07:10 AM 26.2°F-3.2°C 4.0°F-15.6°C 38% 4.6 mph NNW7.4 kmh NNW 5.8 mph9.3 kmh 30.19 in1022.4 mb - 0.00 in0.0 mm 0.00 in0.0 mm
07:00 AM 26.4°F-3.1°C 4.2°F-15.4°C 38% 4.6 mph N7.4 kmh N 4.6 mph7.4 kmh 30.19 in1022.4 mb - 0.00 in0.0 mm 0.00 in0.0 mm
06:50 AM 26.4°F-3.1°C 4.2°F-15.4°C 38% 4.6 mph N7.4 kmh N 8.1 mph13.0 kmh 30.19 in1022.4 mb - 0.00 in0.0 mm 0.00 in0.0 mm
06:40 AM 26.6°F-3.0°C 4.4°F-15.3°C 38% 6.9 mph N11.1 kmh N 11.5 mph18.5 kmh 30.19 in1022.4 mb - 0.00 in0.0 mm 0.00 in0.0 mm
06:30 AM 26.8°F-2.9°C 4.5°F-15.3°C 38% 6.9 mph NNW11.1 kmh NNW 10.4 mph16.7 kmh 30.19 in1022.4 mb - 0.00 in0.0 mm 0.00 in0.0 mm
06:20 AM 27.0°F-2.8°C 4.7°F-15.2°C 38% 5.8 mph NNW9.3 kmh NNW 10.4 mph16.7 kmh 30.16 in1021.3 mb - 0.00 in0.0 mm 0.00 in0.0 mm
06:10 AM 27.0°F-2.8°C 4.7°F-15.2°C 38% 6.9 mph NNW11.1 kmh NNW 8.1 mph13.0 kmh 30.16 in1021.3 mb - 0.00 in0.0 mm 0.00 in0.0 mm
06:00 AM 26.6°F-3.0°C 4.4°F-15.3°C 38% 6.9 mph N11.1 kmh N 10.4 mph16.7 kmh 30.16 in1021.3 mb - 0.00 in0.0 mm 0.00 in0.0 mm
05:50 AM 26.8°F-2.9°C 4.5°F-15.3°C 38% 5.8 mph NNW9.3 kmh NNW 6.9 mph11.1 kmh 30.16 in1021.3 mb - 0.00 in0.0 mm 0.00 in0.0 mm
05:40 AM 26.8°F-2.9°C 4.5°F-15.3°C 38% 5.8 mph N9.3 kmh N 5.8 mph9.3 kmh 30.16 in1021.3 mb - 0.00 in0.0 mm 0.00 in0.0 mm
05:30 AM 26.9°F-2.8°C 4.6°F-15.2°C 38% 5.8 mph NNW9.3 kmh NNW 5.8 mph9.3 kmh 30.16 in1021.3 mb - 0.00 in0.0 mm 0.00 in0.0 mm
05:20 AM 27.0°F-2.8°C 4.7°F-15.2°C 38% 4.6 mph NNW7.4 kmh NNW 8.1 mph13.0 kmh 30.14 in1020.7 mb - 0.00 in0.0 mm 0.00 in0.0 mm
05:10 AM 27.0°F-2.8°C 4.8°F-15.1°C 38% 4.6 mph NNE7.4 kmh NNE 5.8 mph9.3 kmh 30.13 in1020.3 mb - 0.00 in0.0 mm 0.00 in0.0 mm
05:00 AM 27.5°F-2.5°C 5.2°F-14.9°C 38% 5.8 mph NNW9.3 kmh NNW 8.1 mph13.0 kmh 30.13 in1020.3 mb - 0.00 in0.0 mm 0.00 in0.0 mm
04:50 AM 27.7°F-2.4°C 5.3°F-14.8°C 38% 5.8 mph NNW9.3 kmh NNW 9.2 mph14.8 kmh 30.13 in1020.3 mb - 0.00 in0.0 mm 0.00 in0.0 mm
04:40 AM 27.9°F-2.3°C 5.5°F-14.7°C 38% 9.2 mph NNW14.8 kmh NNW 12.7 mph20.4 kmh 30.13 in1020.3 mb - 0.00 in0.0 mm 0.00 in0.0 mm
04:30 AM 28.0°F-2.2°C 5.6°F-14.7°C 38% 5.8 mph NNW9.3 kmh NNW 8.1 mph13.0 kmh 30.13 in1020.3 mb - 0.00 in0.0 mm 0.00 in0.0 mm
04:20 AM 28.0°F-2.2°C 5.7°F-14.6°C 38% 6.9 mph NW11.1 kmh NW 11.5 mph18.5 kmh 30.13 in1020.3 mb - 0.00 in0.0 mm 0.00 in0.0 mm
04:10 AM 28.4°F-2.0°C 6.0°F-14.4°C 38% 8.1 mph NW13.0 kmh NW 11.5 mph18.5 kmh 30.13 in1020.3 mb - 0.00 in0.0 mm 0.00 in0.0 mm
04:00 AM 28.4°F-2.0°C 6.0°F-14.4°C 38% 8.1 mph NW13.0 kmh NW 9.2 mph14.8 kmh 30.11 in1019.6 mb - 0.00 in0.0 mm 0.00 in0.0 mm
03:50 AM 28.6°F-1.9°C 6.1°F-14.4°C 38% 11.5 mph NW18.5 kmh NW 12.7 mph20.4 kmh 30.13 in1020.3 mb - 0.00 in0.0 mm 0.00 in0.0 mm
03:40 AM 28.8°F-1.8°C 6.3°F-14.3°C 38% 8.1 mph NW13.0 kmh NW 10.4 mph16.7 kmh 30.13 in1020.3 mb - 0.00 in0.0 mm 0.00 in0.0 mm
03:30 AM 28.9°F-1.7°C 6.5°F-14.2°C 38% 8.1 mph NW13.0 kmh NW 12.7 mph20.4 kmh 30.13 in1020.3 mb - 0.00 in0.0 mm 0.00 in0.0 mm
03:20 AM 28.9°F-1.7°C 6.5°F-14.2°C 38% 8.1 mph NW13.0 kmh NW 11.5 mph18.5 kmh 30.13 in1020.3 mb - 0.00 in0.0 mm 0.00 in0.0 mm
03:10 AM 28.9°F-1.7°C 6.5°F-14.2°C 38% 6.9 mph NNW11.1 kmh NNW 10.4 mph16.7 kmh 30.13 in1020.3 mb - 0.00 in0.0 mm 0.00 in0.0 mm
03:00 AM 28.9°F-1.7°C 6.5°F-14.2°C 38% 4.6 mph NW7.4 kmh NW 8.1 mph13.0 kmh 30.13 in1020.3 mb - 0.00 in0.0 mm 0.00 in0.0 mm
02:50 AM 29.2°F-1.6°C 6.7°F-14.1°C 38% 3.5 mph N5.6 kmh N 5.8 mph9.3 kmh 30.13 in1020.3 mb - 0.00 in0.0 mm 0.00 in0.0 mm
02:40 AM 29.7°F-1.3°C 7.1°F-13.8°C 38% 4.6 mph NNW7.4 kmh NNW 5.8 mph9.3 kmh 30.13 in1020.3 mb - 0.00 in0.0 mm 0.00 in0.0 mm
02:30 AM 30.0°F-1.1°C 7.4°F-13.7°C 38% 5.8 mph NNW9.3 kmh NNW 5.8 mph9.3 kmh 30.13 in1020.3 mb - 0.00 in0.0 mm 0.00 in0.0 mm
02:20 AM 30.4°F-0.9°C 7.8°F-13.4°C 38% 6.9 mph NW11.1 kmh NW 8.1 mph13.0 kmh 30.13 in1020.3 mb - 0.00 in0.0 mm 0.00 in0.0 mm
02:10 AM 30.6°F-0.8°C 7.9°F-13.4°C 38% 5.8 mph NNW9.3 kmh NNW 8.1 mph13.0 kmh 30.13 in1020.3 mb - 0.00 in0.0 mm 0.00 in0.0 mm
02:00 AM 30.6°F-0.8°C 7.9°F-13.4°C 38% 6.9 mph NNW11.1 kmh NNW 10.4 mph16.7 kmh 30.13 in1020.3 mb - 0.00 in0.0 mm 0.00 in0.0 mm
01:50 AM 30.6°F-0.8°C 7.9°F-13.4°C 38% 8.1 mph NNW13.0 kmh NNW 12.7 mph20.4 kmh 30.13 in1020.3 mb - 0.00 in0.0 mm 0.00 in0.0 mm
01:40 AM 30.7°F-0.7°C 8.1°F-13.3°C 38% 5.8 mph N9.3 kmh N 8.1 mph13.0 kmh 30.13 in1020.3 mb - 0.00 in0.0 mm 0.00 in0.0 mm
01:30 AM 30.9°F-0.6°C 8.2°F-13.2°C 38% 4.6 mph N7.4 kmh N 8.1 mph13.0 kmh 30.13 in1020.3 mb - 0.00 in0.0 mm 0.00 in0.0 mm
01:20 AM 31.0°F-0.6°C 8.3°F-13.2°C 38% 4.6 mph N7.4 kmh N 5.8 mph9.3 kmh 30.13 in1020.3 mb - 0.00 in0.0 mm 0.00 in0.0 mm
01:10 AM 31.3°F-0.4°C 8.6°F-13.0°C 38% 4.6 mph N7.4 kmh N 5.8 mph9.3 kmh 30.13 in1020.3 mb - 0.00 in0.0 mm 0.00 in0.0 mm
01:00 AM 31.8°F-0.1°C 9.1°F-12.7°C 38% 3.5 mph N5.6 kmh N 3.5 mph5.6 kmh 30.13 in1020.3 mb - 0.00 in0.0 mm 0.00 in0.0 mm
12:50 AM 32.4°F0.2°C 8.9°F-12.8°C 37% 3.5 mph N5.6 kmh N 5.8 mph9.3 kmh 30.11 in1019.6 mb - 0.00 in0.0 mm 0.00 in0.0 mm
12:40 AM 32.7°F0.4°C 9.3°F-12.6°C 37% 5.8 mph NNW9.3 kmh NNW 5.8 mph9.3 kmh 30.11 in1019.6 mb - 0.00 in0.0 mm 0.00 in0.0 mm
12:30 AM 32.8°F0.4°C 9.3°F-12.6°C 37% 5.8 mph NNW9.3 kmh NNW 9.2 mph14.8 kmh 30.11 in1019.6 mb - 0.00 in0.0 mm 0.00 in0.0 mm
12:20 AM 33.1°F0.6°C 9.6°F-12.4°C 37% 5.8 mph NNW9.3 kmh NNW 8.1 mph13.0 kmh 30.11 in1019.6 mb - 0.00 in0.0 mm 0.00 in0.0 mm
12:10 AM 33.4°F0.8°C 9.9°F-12.3°C 37% 5.8 mph N9.3 kmh N 5.8 mph9.3 kmh 30.11 in1019.6 mb - 0.00 in0.0 mm 0.00 in0.0 mm
12:00 AM 33.6°F0.9°C 10.1°F-12.2°C 37% 5.8 mph NNW9.3 kmh NNW 8.1 mph13.0 kmh 30.11 in1019.6 mb - 0.00 in0.0 mm 0.00 in0.0 mm